Vivorata, Argentina
Current Conditions -  °F | °C
As of 12:00 AM on Saturday 22 Nov 2014 (Local Time) from SAZM Reporting Station
Overcast Overcast  
Wind Chill: 61°   Ceiling: 2000
Heat Index: 61°   Visibility: 5mi
Dew Point: 54°   Wind: 9mph
Humidity: 77%   Direction: 160°SSE
Pressure: 29.91"   Gusts: NA
Location:  37.67°S, 57.67°W
Report Text: SAZM 220300Z 16008KT 8000 BKN020 OVC10016/12 Q1013
Loading
Personal Weather Stations






























Interactive Weather Map New forecast layout! Learn more

10-Day Weather Forecast

Advertisements
Track Severe Weather on mobile